YSSY/SYD METAR and TAF weather

Enter ICAO airport designator
Station Type Date Time Source
YSSY METAR 2021/03/05 18:30 UTC NOAA

YSSY 051830Z 20013KT 9999 FEW035 SCT050 BKN065 19/14 Q1010


Station Type Date Time Source
YSSY Decoded METAR 2021/03/05 18:30 UTC NOAA

Sydney Airport, Australia (YSSY) 33-57S 151-11E 3M
Mar 05, 2021 - 01:30 PM EST / 2021.03.05 1830 UTC
Wind: from the SSW (200 degrees) at 15 MPH (13 KT):0
Visibility: greater than 7 mile(s):0
Sky conditions: mostly cloudy
Temperature: 66 F (19 C)
Dew Point: 57 F (14 C)
Relative Humidity: 72%
Pressure (altimeter): 29.83 in. Hg (1010 hPa)
ob: YSSY 051830Z 20013KT 9999 FEW035 SCT050 BKN065 19/14 Q1010
cycle: 18

Station Type Date Time Source
YSSY TAF 2021/03/05 18:44 UTC NOAA

TAF YSSY 051707Z 0518/0700 19014KT 9999 -SHRA SCT030 BKN045
FM060200 16014KT 9999 NSW SCT045
FM061200 19008KT 9999 FEW025 BKN040
FM061800 29006KT 9999 FEW025 BKN040

Example: see airport list